Time;durP1;ratioP1;P1;durP2;ratioP2;P2;SDS_P1;SDS_P2;PMS_P1;PMS_P2;Temp;Humidity;BMP_temperature;BMP_pressure;BME280_temperature;BME280_humidity;BME280_pressure;Samples;Min_cycle;Max_cycle;Signal;HPM_P1;HPM_P2
2022/03/12 00:01:21;;;;;;;11.60;6.85;;;4.50;44.70;;;;;;5007663;28;20033;-71
2022/03/12 00:03:47;;;;;;;12.60;6.57;;;4.50;44.90;;;;;;5016037;28;20049;-70
2022/03/12 00:06:15;;;;;;;15.15;6.88;;;4.50;45.10;;;;;;5018522;28;20030;-70
2022/03/12 00:08:42;;;;;;;12.85;6.80;;;4.50;45.30;;;;;;5018762;28;20030;-69
2022/03/12 00:11:16;;;;;;;13.60;7.03;;;4.50;45.20;;;;;;5017927;28;20033;-69
2022/03/12 00:13:43;;;;;;;18.85;7.45;;;4.40;45.20;;;;;;5017892;28;20498;-69
2022/03/12 00:16:13;;;;;;;18.88;6.97;;;4.50;45.40;;;;;;4999508;28;20025;-70
2022/03/12 00:18:42;;;;;;;14.02;7.30;;;4.50;45.60;;;;;;5024604;28;21175;-69
2022/03/12 00:21:11;;;;;;;15.38;7.18;;;4.40;45.20;;;;;;5016447;28;20021;-70
2022/03/12 00:23:37;;;;;;;17.85;7.68;;;4.40;45.60;;;;;;5019856;28;20025;-69
2022/03/12 00:26:02;;;;;;;11.80;7.03;;;4.30;45.80;;;;;;5019576;28;20067;-71
2022/03/12 00:28:28;;;;;;;17.80;7.80;;;4.30;45.90;;;;;;5019377;28;20034;-68
2022/03/12 00:30:54;;;;;;;13.43;6.88;;;4.20;46.10;;;;;;5022995;28;20057;-69
2022/03/12 00:33:21;;;;;;;14.32;7.20;;;4.20;46.30;;;;;;5002527;28;20026;-69
2022/03/12 00:35:49;;;;;;;15.30;7.82;;;4.20;46.10;;;;;;5021896;28;20040;-69
2022/03/12 00:38:16;;;;;;;13.27;6.90;;;4.20;46.40;;;;;;5019948;28;20033;-70
2022/03/12 00:40:43;;;;;;;15.77;7.20;;;4.20;46.20;;;;;;5018305;28;20025;-69
2022/03/12 00:43:09;;;;;;;12.30;6.30;;;4.20;46.10;;;;;;5019100;28;20121;-69
2022/03/12 00:45:36;;;;;;;14.07;6.72;;;4.20;46.10;;;;;;5022199;28;20026;-70
2022/03/12 00:48:02;;;;;;;14.52;6.65;;;4.10;45.90;;;;;;5029376;28;20021;-70
2022/03/12 00:50:28;;;;;;;13.10;6.70;;;4.10;46.10;;;;;;5019489;28;20025;-70
2022/03/12 00:52:53;;;;;;;15.07;7.20;;;4.10;46.10;;;;;;5021399;28;20033;-70
2022/03/12 00:55:19;;;;;;;15.85;7.35;;;4.10;46.10;;;;;;5019648;28;20029;-68
2022/03/12 00:57:45;;;;;;;11.68;6.72;;;4.10;46.10;;;;;;5020122;28;20044;-68
2022/03/12 01:00:18;;;;;;;11.32;6.68;;;4.10;46.00;;;;;;5019814;28;20057;-69
2022/03/12 01:02:44;;;;;;;14.85;7.00;;;4.10;46.10;;;;;;5016794;28;20026;-68
2022/03/12 01:05:12;;;;;;;14.68;6.82;;;4.10;46.10;;;;;;5019462;28;20395;-69
2022/03/12 01:07:38;;;;;;;14.18;7.20;;;4.00;46.30;;;;;;5018084;28;20063;-70
2022/03/12 01:10:04;;;;;;;14.00;7.40;;;4.00;46.20;;;;;;5019169;28;20377;-69
2022/03/12 01:12:30;;;;;;;17.40;7.32;;;4.00;46.40;;;;;;5021319;28;20515;-68
2022/03/12 01:14:55;;;;;;;12.13;6.45;;;4.00;46.20;;;;;;5022042;28;20057;-69
2022/03/12 01:17:21;;;;;;;15.70;6.63;;;4.00;46.30;;;;;;5023409;28;20033;-68
2022/03/12 01:19:47;;;;;;;11.73;6.53;;;3.90;46.30;;;;;;5024140;28;20026;-68
2022/03/12 01:22:17;;;;;;;14.98;7.57;;;3.90;46.60;;;;;;5028232;28;20087;-70
2022/03/12 01:24:43;;;;;;;15.18;7.43;;;3.90;46.70;;;;;;5027274;28;20014;-68
2022/03/12 01:27:08;;;;;;;15.68;6.82;;;3.90;46.50;;;;;;5029057;28;20422;-69
2022/03/12 01:29:34;;;;;;;13.60;7.38;;;3.80;46.70;;;;;;5018029;28;20028;-68
2022/03/12 01:32:00;;;;;;;11.43;6.43;;;3.80;46.60;;;;;;5023339;28;20033;-69
2022/03/12 01:34:25;;;;;;;13.68;6.15;;;3.90;46.60;;;;;;5026250;28;20029;-69
2022/03/12 01:36:51;;;;;;;13.75;6.95;;;3.80;46.70;;;;;;5008416;28;20494;-68
2022/03/12 01:39:17;;;;;;;12.32;6.53;;;3.80;46.70;;;;;;5026818;28;20389;-68
2022/03/12 01:41:43;;;;;;;13.48;7.30;;;3.80;46.50;;;;;;5030996;28;20057;-68
2022/03/12 01:44:12;;;;;;;17.00;6.60;;;3.80;46.50;;;;;;5028774;28;20490;-68
2022/03/12 01:46:44;;;;;;;12.55;6.72;;;3.80;46.70;;;;;;5026940;28;20042;-69
2022/03/12 01:49:16;;;;;;;14.98;7.03;;;3.70;46.60;;;;;;5028968;28;20052;-69
2022/03/12 01:51:44;;;;;;;17.33;6.72;;;3.70;46.90;;;;;;5009340;28;20029;-70
2022/03/12 01:54:10;;;;;;;16.40;6.63;;;3.60;46.60;;;;;;5030907;28;20025;-69
2022/03/12 01:56:38;;;;;;;11.88;5.75;;;3.60;46.80;;;;;;5026052;28;20033;-70
2022/03/12 01:59:05;;;;;;;12.35;6.72;;;3.60;46.80;;;;;;5021873;28;20032;-69
2022/03/12 02:01:32;;;;;;;13.35;6.70;;;3.60;46.70;;;;;;5026919;28;20030;-70
2022/03/12 02:04:04;;;;;;;11.25;6.45;;;3.60;46.80;;;;;;5025091;28;20037;-70
2022/03/12 02:06:29;;;;;;;12.63;6.72;;;3.60;47.00;;;;;;5029752;28;20096;-69
2022/03/12 02:08:59;;;;;;;16.45;6.90;;;3.50;46.80;;;;;;5026095;28;20474;-69
2022/03/12 02:11:27;;;;;;;12.45;6.65;;;3.50;46.80;;;;;;5025542;28;20103;-69
2022/03/12 02:14:01;;;;;;;14.98;6.50;;;3.50;46.70;;;;;;5024548;28;20013;-70
2022/03/12 02:16:28;;;;;;;13.63;6.35;;;3.50;46.90;;;;;;5025801;28;20033;-69
2022/03/12 02:18:54;;;;;;;15.00;6.90;;;3.50;46.70;;;;;;5031676;28;20506;-69
2022/03/12 02:21:34;;;;;;;12.95;6.38;;;3.40;46.80;;;;;;5028724;28;20491;-69
2022/03/12 02:24:02;;;;;;;15.27;6.40;;;3.40;47.00;;;;;;5019606;28;20026;-69
2022/03/12 02:26:28;;;;;;;13.80;7.00;;;3.50;46.90;;;;;;5030237;28;20018;-70
2022/03/12 02:28:53;;;;;;;13.82;6.25;;;3.40;46.80;;;;;;5028435;28;20040;-70
2022/03/12 02:31:23;;;;;;;12.60;6.47;;;3.40;46.90;;;;;;5027935;28;20021;-69
2022/03/12 02:33:50;;;;;;;12.63;6.68;;;3.30;47.00;;;;;;5026683;28;20589;-69
2022/03/12 02:36:18;;;;;;;10.40;6.57;;;3.30;47.10;;;;;;5028621;28;20510;-69
2022/03/12 02:38:47;;;;;;;13.68;6.85;;;3.30;47.10;;;;;;5021259;28;20048;-70
2022/03/12 02:41:14;;;;;;;14.32;7.25;;;3.20;47.00;;;;;;5020914;28;20027;-68
2022/03/12 02:43:46;;;;;;;13.20;6.30;;;3.20;47.30;;;;;;5025316;28;20026;-69
2022/03/12 02:46:15;;;;;;;14.45;6.80;;;3.20;47.30;;;;;;5030470;28;20033;-69
2022/03/12 02:48:49;;;;;;;13.30;6.35;;;3.10;47.30;;;;;;5026058;28;20010;-69
2022/03/12 02:51:16;;;;;;;14.32;6.68;;;3.10;47.40;;;;;;5020287;28;20018;-70
2022/03/12 02:53:43;;;;;;;14.13;6.90;;;3.20;47.30;;;;;;5021004;28;20017;-70
2022/03/12 02:56:10;;;;;;;12.20;6.28;;;3.20;47.40;;;;;;5024820;28;20040;-68
2022/03/12 02:58:35;;;;;;;12.38;6.00;;;3.10;47.40;;;;;;5016860;28;20498;-69
2022/03/12 03:01:03;;;;;;;12.68;6.80;;;3.10;47.40;;;;;;5024184;28;20022;-70
2022/03/12 03:03:36;;;;;;;12.52;6.32;;;3.10;47.40;;;;;;5021336;28;20033;-70
2022/03/12 03:06:02;;;;;;;12.30;6.18;;;3.00;47.40;;;;;;5020161;28;20033;-70
2022/03/12 03:08:28;;;;;;;13.73;6.93;;;3.00;47.30;;;;;;5021382;28;20025;-68
2022/03/12 03:10:58;;;;;;;13.07;6.30;;;3.00;47.20;;;;;;5020448;28;20029;-70
2022/03/12 03:13:40;;;;;;;14.83;6.23;;;2.90;47.40;;;;;;5021523;28;20034;-69
2022/03/12 03:16:07;;;;;;;13.77;6.25;;;3.00;47.20;;;;;;5002312;28;20041;-70
2022/03/12 03:18:38;;;;;;;11.18;6.53;;;3.00;47.20;;;;;;5021397;28;20030;-69
2022/03/12 03:21:08;;;;;;;13.13;5.97;;;3.00;47.20;;;;;;5021428;28;20371;-69
2022/03/12 03:23:34;;;;;;;15.60;6.88;;;2.90;47.00;;;;;;5020201;28;20037;-70
2022/03/12 03:26:00;;;;;;;14.23;6.30;;;3.00;46.90;;;;;;5019458;28;20040;-68
2022/03/12 03:28:26;;;;;;;12.32;6.63;;;3.00;46.80;;;;;;5020600;28;20025;-69
2022/03/12 03:30:52;;;;;;;14.27;6.45;;;3.00;46.90;;;;;;5015244;28;20068;-69
2022/03/12 03:33:21;;;;;;;13.50;6.68;;;2.90;46.90;;;;;;5019629;28;20030;-69
2022/03/12 03:35:47;;;;;;;13.30;6.20;;;2.80;47.00;;;;;;5018229;28;20414;-70
2022/03/12 03:38:14;;;;;;;11.98;6.18;;;2.90;47.00;;;;;;5023123;28;20035;-69
2022/03/12 03:40:41;;;;;;;12.55;6.10;;;2.80;47.20;;;;;;5019517;28;20120;-69
2022/03/12 03:43:09;;;;;;;18.65;6.22;;;2.70;47.10;;;;;;5016062;28;20060;-69
2022/03/12 03:45:35;;;;;;;12.18;6.22;;;2.80;47.10;;;;;;5006345;28;20076;-69
2022/03/12 03:48:01;;;;;;;11.98;5.55;;;2.70;47.30;;;;;;5018763;28;20383;-69
2022/03/12 03:50:27;;;;;;;12.25;6.00;;;2.70;47.20;;;;;;5022243;28;20032;-69
2022/03/12 03:52:57;;;;;;;13.27;6.10;;;2.70;47.10;;;;;;5018133;28;20109;-69
2022/03/12 03:55:25;;;;;;;16.25;6.50;;;2.70;47.10;;;;;;5022741;28;20029;-69
2022/03/12 03:57:53;;;;;;;13.27;5.97;;;2.70;47.50;;;;;;5025457;28;20029;-69
2022/03/12 04:00:22;;;;;;;11.90;6.50;;;2.60;47.30;;;;;;5027195;28;20509;-69
2022/03/12 04:02:55;;;;;;;11.43;5.82;;;2.60;47.40;;;;;;5027733;28;20487;-68
2022/03/12 04:05:22;;;;;;;11.38;6.15;;;2.60;47.50;;;;;;5021612;28;20021;-68
2022/03/12 04:07:47;;;;;;;13.68;6.38;;;2.60;47.30;;;;;;5022398;28;20045;-69
2022/03/12 04:10:13;;;;;;;14.73;7.07;;;2.60;47.40;;;;;;5027570;28;20029;-70
2022/03/12 04:12:39;;;;;;;12.75;6.15;;;2.60;47.30;;;;;;5000012;28;20030;-70
2022/03/12 04:15:06;;;;;;;10.25;5.72;;;2.60;47.50;;;;;;5023358;28;20034;-70
2022/03/12 04:17:33;;;;;;;12.63;6.25;;;2.60;47.30;;;;;;5022180;28;20029;-70
2022/03/12 04:19:59;;;;;;;13.43;6.05;;;2.60;47.40;;;;;;5023460;28;20029;-70
2022/03/12 04:22:25;;;;;;;12.00;5.78;;;2.50;47.40;;;;;;5006758;28;20025;-69
2022/03/12 04:24:51;;;;;;;10.88;6.15;;;2.50;47.80;;;;;;5022508;28;20088;-68
2022/03/12 04:27:16;;;;;;;11.30;6.30;;;2.50;47.50;;;;;;5025005;28;20399;-68
2022/03/12 04:29:42;;;;;;;13.75;5.90;;;2.40;47.60;;;;;;5006969;28;20013;-68
2022/03/12 04:32:11;;;;;;;13.30;6.32;;;2.40;47.80;;;;;;5030093;28;20025;-69
2022/03/12 04:34:37;;;;;;;12.88;6.15;;;2.50;47.80;;;;;;5016370;28;20029;-68
2022/03/12 04:37:03;;;;;;;13.48;6.15;;;2.50;47.80;;;;;;5019937;28;20030;-68
2022/03/12 04:39:30;;;;;;;15.68;6.13;;;2.40;47.60;;;;;;5024373;28;20026;-68
2022/03/12 04:41:56;;;;;;;12.05;6.45;;;2.50;47.70;;;;;;5024815;28;20036;-68
2022/03/12 04:44:22;;;;;;;14.85;6.93;;;2.40;47.80;;;;;;5028909;28;20028;-69
2022/03/12 04:46:48;;;;;;;13.60;6.25;;;2.40;47.90;;;;;;5023103;28;20105;-68
2022/03/12 04:49:14;;;;;;;11.68;5.90;;;2.40;48.10;;;;;;5023958;28;20540;-69
2022/03/12 04:51:42;;;;;;;13.07;6.35;;;2.40;48.10;;;;;;5028172;28;20033;-68
2022/03/12 04:54:08;;;;;;;12.13;6.28;;;2.40;48.10;;;;;;5026056;28;20064;-69
2022/03/12 04:56:34;;;;;;;12.45;6.38;;;2.30;48.20;;;;;;5019065;28;20118;-69
2022/03/12 04:59:00;;;;;;;13.77;6.70;;;2.30;48.20;;;;;;5040059;28;20026;-68
2022/03/12 05:01:25;;;;;;;13.43;5.97;;;2.30;47.90;;;;;;5024495;28;20025;-68
2022/03/12 05:03:52;;;;;;;11.95;6.28;;;2.20;48.20;;;;;;5023288;28;20108;-68
2022/03/12 05:06:18;;;;;;;13.02;6.15;;;2.30;48.30;;;;;;5030071;28;20029;-68
2022/03/12 05:08:45;;;;;;;12.25;6.30;;;2.30;48.20;;;;;;5026397;28;20080;-69
2022/03/12 05:11:11;;;;;;;15.98;5.55;;;2.20;48.30;;;;;;5031840;28;20049;-68
2022/03/12 05:13:36;;;;;;;12.73;6.65;;;2.20;48.30;;;;;;5025589;28;20060;-69
2022/03/12 05:16:05;;;;;;;16.90;7.43;;;2.20;48.30;;;;;;5027467;28;20093;-69
2022/03/12 05:18:36;;;;;;;12.52;6.40;;;2.10;48.40;;;;;;5027833;28;20507;-70
2022/03/12 05:21:03;;;;;;;10.68;5.45;;;2.10;48.60;;;;;;5044000;28;20398;-69
2022/03/12 05:23:29;;;;;;;13.38;6.47;;;2.10;48.70;;;;;;5029855;28;20041;-69
2022/03/12 05:25:55;;;;;;;12.20;6.30;;;2.20;48.60;;;;;;5006445;28;20049;-69
2022/03/12 05:28:30;;;;;;;10.82;6.15;;;2.10;48.60;;;;;;5026375;28;20044;-70
2022/03/12 05:30:59;;;;;;;12.43;6.55;;;2.20;48.50;;;;;;5026761;28;20101;-69
2022/03/12 05:33:26;;;;;;;11.65;6.32;;;2.10;48.50;;;;;;5024887;28;20036;-69
2022/03/12 05:35:54;;;;;;;11.40;5.75;;;2.10;48.50;;;;;;5023591;28;20026;-69
2022/03/12 05:38:20;;;;;;;13.45;6.25;;;2.10;48.50;;;;;;5032919;28;20053;-69
2022/03/12 05:40:48;;;;;;;14.57;5.88;;;2.10;48.50;;;;;;5028741;28;20431;-70
2022/03/12 05:43:15;;;;;;;12.57;6.13;;;2.10;48.30;;;;;;5029271;28;20059;-69
2022/03/12 05:45:45;;;;;;;10.00;5.50;;;2.10;48.50;;;;;;5029072;28;20433;-70
2022/03/12 05:48:11;;;;;;;12.30;6.30;;;2.10;49.00;;;;;;5025667;28;20021;-69
2022/03/12 05:50:38;;;;;;;10.88;5.65;;;2.10;48.40;;;;;;5029158;28;20046;-69
2022/03/12 05:53:08;;;;;;;14.38;6.65;;;2.00;48.60;;;;;;5024183;28;20033;-69
2022/03/12 05:55:39;;;;;;;13.45;5.40;;;2.00;48.50;;;;;;5025341;28;20064;-70
2022/03/12 05:58:06;;;;;;;9.73;5.45;;;2.00;48.60;;;;;;5027993;28;20029;-69
2022/03/12 06:00:34;;;;;;;9.88;5.60;;;2.00;48.80;;;;;;5030036;28;20033;-69
2022/03/12 06:03:01;;;;;;;12.63;6.00;;;2.00;48.60;;;;;;5020182;28;20034;-70
2022/03/12 06:05:27;;;;;;;14.38;7.15;;;2.00;48.80;;;;;;5026392;28;20024;-70
2022/03/12 06:07:54;;;;;;;13.57;5.88;;;2.00;48.70;;;;;;5031052;28;20521;-70
2022/03/12 06:10:24;;;;;;;10.65;5.85;;;2.00;48.70;;;;;;5023157;28;20030;-69
2022/03/12 06:12:53;;;;;;;11.18;5.40;;;2.10;48.50;;;;;;5029789;28;20415;-69
2022/03/12 06:15:20;;;;;;;13.48;6.15;;;2.10;48.50;;;;;;5025521;28;20029;-69
2022/03/12 06:17:47;;;;;;;12.32;5.65;;;2.10;48.30;;;;;;5019881;28;20083;-68
2022/03/12 06:20:14;;;;;;;10.63;5.60;;;2.00;48.20;;;;;;5025530;28;20056;-68
2022/03/12 06:22:41;;;;;;;13.48;6.00;;;2.10;48.20;;;;;;5005859;28;20285;-71
2022/03/12 06:25:09;;;;;;;10.85;5.45;;;2.00;48.30;;;;;;5005503;28;20161;-70
2022/03/12 06:27:35;;;;;;;13.50;6.15;;;2.00;48.20;;;;;;5023370;28;20092;-69
2022/03/12 06:30:05;;;;;;;10.13;5.32;;;2.10;47.90;;;;;;5026125;28;20029;-69
2022/03/12 06:32:31;;;;;;;9.90;5.15;;;2.10;47.90;;;;;;5029641;28;20112;-69
2022/03/12 06:34:58;;;;;;;14.50;6.20;;;2.10;47.70;;;;;;5051182;28;20089;-69
2022/03/12 06:37:25;;;;;;;10.88;5.78;;;2.10;47.80;;;;;;5010263;28;20117;-69
2022/03/12 06:39:51;;;;;;;12.60;6.20;;;2.30;50.50;;;;;;5029137;28;20029;-70
2022/03/12 06:42:19;;;;;;;9.75;5.63;;;2.30;47.70;;;;;;5006337;28;20029;-69
2022/03/12 06:44:45;;;;;;;10.38;5.43;;;2.30;47.40;;;;;;5025020;28;20017;-70
2022/03/12 06:47:11;;;;;;;10.35;5.50;;;2.30;47.30;;;;;;5027208;28;20357;-69
2022/03/12 06:49:38;;;;;;;15.10;5.95;;;2.30;47.40;;;;;;5024186;28;20100;-70
2022/03/12 06:52:06;;;;;;;13.85;6.20;;;2.40;47.40;;;;;;5017902;28;20046;-69
2022/03/12 06:54:35;;;;;;;;;;;2.40;47.20;;;;;;5009445;28;20029;-70
2022/03/12 06:57:03;;;;;;;12.02;6.07;;;2.40;47.00;;;;;;5038618;28;20375;-70
2022/03/12 06:59:30;;;;;;;10.93;5.28;;;2.40;46.90;;;;;;5024278;28;20028;-70
2022/03/12 07:01:55;;;;;;;13.60;6.63;;;2.40;46.70;;;;;;5024696;28;20680;-69
2022/03/12 07:04:21;;;;;;;14.70;6.03;;;2.50;46.90;;;;;;5025701;28;20033;-69
2022/03/12 07:06:51;;;;;;;12.63;5.75;;;2.60;46.80;;;;;;5022605;28;20033;-69
2022/03/12 07:09:18;;;;;;;10.65;5.45;;;2.60;46.40;;;;;;5011886;28;20147;-69
2022/03/12 07:11:43;;;;;;;11.55;5.72;;;2.70;46.00;;;;;;5022836;28;20101;-69
2022/03/12 07:14:10;;;;;;;14.32;6.00;;;2.70;45.80;;;;;;5030042;28;20444;-69
2022/03/12 07:16:36;;;;;;;10.85;5.97;;;2.70;46.00;;;;;;5045857;28;20072;-69
2022/03/12 07:19:02;;;;;;;9.90;5.18;;;2.80;45.60;;;;;;5045148;28;20049;-68
2022/03/12 07:21:28;;;;;;;11.07;5.60;;;2.80;45.50;;;;;;5047970;28;20053;-69
2022/03/12 07:23:54;;;;;;;13.07;5.85;;;2.90;45.60;;;;;;5051410;28;20052;-69
2022/03/12 07:26:21;;;;;;;9.77;5.20;;;3.00;45.30;;;;;;5050886;28;20033;-70
2022/03/12 07:28:49;;;;;;;11.50;6.20;;;3.00;45.50;;;;;;5030740;28;20402;-69
2022/03/12 07:31:18;;;;;;;11.55;4.97;;;3.10;45.40;;;;;;5032016;28;20539;-67
2022/03/12 07:33:44;;;;;;;10.30;5.38;;;3.20;44.50;;;;;;5046507;28;20433;-68
2022/03/12 07:36:11;;;;;;;11.23;5.25;;;3.30;44.10;;;;;;5050017;28;20514;-68
2022/03/12 07:38:36;;;;;;;8.05;4.57;;;3.30;44.00;;;;;;5049207;28;20043;-68
2022/03/12 07:41:02;;;;;;;10.88;5.53;;;3.40;44.10;;;;;;5026809;28;20029;-68
2022/03/12 07:43:28;;;;;;;13.00;5.03;;;3.50;43.20;;;;;;5048049;28;20101;-69
2022/03/12 07:45:54;;;;;;;10.23;5.40;;;3.50;42.90;;;;;;5012039;28;20422;-67
2022/03/12 07:48:19;;;;;;;9.57;5.28;;;3.60;43.30;;;;;;5048408;28;20064;-70
2022/03/12 07:50:46;;;;;;;10.45;5.50;;;3.60;42.80;;;;;;5046791;28;20028;-69
2022/03/12 07:53:12;;;;;;;9.70;4.60;;;3.70;42.40;;;;;;5047590;28;20047;-69
2022/03/12 07:55:40;;;;;;;8.55;5.10;;;3.80;42.40;;;;;;5047132;28;20595;-69
2022/03/12 07:58:06;;;;;;;10.15;5.25;;;3.90;42.50;;;;;;5029291;28;21812;-68
2022/03/12 08:00:32;;;;;;;10.55;4.95;;;3.90;42.20;;;;;;5047572;28;20040;-69
2022/03/12 08:02:58;;;;;;;10.88;5.45;;;3.90;42.30;;;;;;5028034;28;20425;-69
2022/03/12 08:05:25;;;;;;;11.20;5.60;;;4.00;42.30;;;;;;5044478;28;20398;-69
2022/03/12 08:07:54;;;;;;;13.05;5.57;;;4.10;42.30;;;;;;5048926;28;20049;-69
2022/03/12 08:10:21;;;;;;;10.07;4.97;;;4.20;42.30;;;;;;5047876;28;20513;-69
2022/03/12 08:12:48;;;;;;;12.00;5.72;;;4.40;46.50;;;;;;5046926;28;20086;-70
2022/03/12 08:15:15;;;;;;;11.15;5.13;;;4.50;41.70;;;;;;5023268;28;20028;-71
2022/03/12 08:17:42;;;;;;;11.13;5.28;;;4.60;41.50;;;;;;5047554;28;20021;-70
2022/03/12 08:20:09;;;;;;;9.15;4.60;;;4.60;41.80;;;;;;5047827;28;20491;-70
2022/03/12 08:22:41;;;;;;;11.13;5.75;;;4.70;41.90;;;;;;5045379;28;20029;-70
2022/03/12 08:25:07;;;;;;;12.32;5.65;;;4.80;41.60;;;;;;5055721;28;20029;-70
2022/03/12 08:27:35;;;;;;;9.98;5.32;;;4.80;41.00;;;;;;5023274;28;20021;-69
2022/03/12 08:30:01;;;;;;;7.72;4.88;;;4.90;41.40;;;;;;5026273;28;20391;-69
2022/03/12 08:32:27;;;;;;;10.05;4.97;;;4.90;41.30;;;;;;5047842;28;21142;-70
2022/03/12 08:34:53;;;;;;;10.77;5.30;;;5.00;41.50;;;;;;5047331;28;20043;-70
2022/03/12 08:37:18;;;;;;;9.10;5.20;;;5.00;41.00;;;;;;5047724;28;20056;-71
2022/03/12 08:39:44;;;;;;;9.48;4.82;;;5.00;40.70;;;;;;5046119;28;20486;-71
2022/03/12 08:42:10;;;;;;;9.07;5.00;;;5.00;40.60;;;;;;5028972;28;20033;-70
2022/03/12 08:44:37;;;;;;;8.90;4.60;;;5.00;40.40;;;;;;5049399;28;20616;-70
2022/03/12 08:47:04;;;;;;;9.43;5.00;;;5.00;40.20;;;;;;5031084;28;20032;-69
2022/03/12 08:49:29;;;;;;;9.50;5.20;;;5.00;40.00;;;;;;5031030;28;20025;-71
2022/03/12 08:51:56;;;;;;;8.25;4.88;;;5.00;40.40;;;;;;5050461;28;20116;-69
2022/03/12 08:54:21;;;;;;;9.25;5.13;;;5.00;40.30;;;;;;5049336;28;20033;-70
2022/03/12 08:56:47;;;;;;;11.95;5.43;;;5.00;40.30;;;;;;5050795;28;20029;-70
2022/03/12 08:59:13;;;;;;;10.52;6.03;;;5.00;40.50;;;;;;5013264;28;20064;-70
2022/03/12 09:01:43;;;;;;;11.52;5.85;;;5.00;40.60;;;;;;5024668;28;20079;-70
2022/03/12 09:04:09;;;;;;;9.32;4.78;;;5.00;40.10;;;;;;5050054;28;20401;-71
2022/03/12 09:06:35;;;;;;;10.65;4.57;;;5.00;40.10;;;;;;5049281;28;20035;-71
2022/03/12 09:09:00;;;;;;;8.57;4.70;;;5.00;40.10;;;;;;5048696;28;20037;-68
2022/03/12 09:11:26;;;;;;;10.48;4.78;;;5.00;40.60;;;;;;5050408;28;20471;-72
2022/03/12 09:13:53;;;;;;;9.68;5.32;;;5.10;40.70;;;;;;5031397;28;20036;-71
2022/03/12 09:16:19;;;;;;;10.20;5.28;;;5.20;40.70;;;;;;5049698;28;20450;-72
2022/03/12 09:18:45;;;;;;;12.43;6.18;;;5.20;40.70;;;;;;5051173;28;20498;-72
2022/03/12 09:21:11;;;;;;;9.13;4.82;;;5.30;40.90;;;;;;5030595;28;20025;-75
2022/03/12 09:23:36;;;;;;;11.00;4.95;;;5.40;40.60;;;;;;5032378;28;20025;-75
2022/03/12 09:26:02;;;;;;;9.93;5.60;;;5.50;40.40;;;;;;5048274;28;20029;-72
2022/03/12 09:28:29;;;;;;;8.82;5.40;;;5.60;40.50;;;;;;5050054;28;20079;-72
2022/03/12 09:30:55;;;;;;;9.52;4.45;;;5.70;40.10;;;;;;5047256;28;20830;-72
2022/03/12 09:33:22;;;;;;;11.63;5.07;;;5.80;40.00;;;;;;5029169;28;20032;-72
2022/03/12 09:35:49;;;;;;;9.15;4.85;;;5.90;39.00;;;;;;5032051;28;20021;-69
2022/03/12 09:38:16;;;;;;;10.60;4.78;;;6.00;38.80;;;;;;5050047;28;20368;-69
2022/03/12 09:40:43;;;;;;;12.50;4.65;;;6.10;38.20;;;;;;5029297;28;20036;-70
2022/03/12 09:43:10;;;;;;;9.85;4.60;;;6.10;38.10;;;;;;5048923;28;20041;-69
2022/03/12 09:45:36;;;;;;;8.32;4.53;;;6.20;38.40;;;;;;5044379;28;20467;-76
2022/03/12 09:48:02;;;;;;;10.07;4.82;;;6.30;38.50;;;;;;5030648;28;20035;-71
2022/03/12 09:50:28;;;;;;;7.20;4.53;;;6.40;38.60;;;;;;5052036;28;20024;-70
2022/03/12 09:52:54;;;;;;;10.27;4.95;;;6.50;38.10;;;;;;5031527;28;20036;-71
2022/03/12 09:55:21;;;;;;;7.30;4.35;;;6.60;37.80;;;;;;5047522;28;20468;-70
2022/03/12 09:57:48;;;;;;;9.40;4.40;;;6.60;38.00;;;;;;5009881;28;20036;-72
2022/03/12 10:00:15;;;;;;;8.52;4.50;;;6.70;38.40;;;;;;5014946;28;20029;-72
2022/03/12 10:02:41;;;;;;;9.52;4.68;;;6.70;38.00;;;;;;5047220;28;20082;-70
2022/03/12 10:05:11;;;;;;;12.77;5.20;;;6.80;37.90;;;;;;5046556;28;20466;-71
2022/03/12 10:07:37;;;;;;;7.28;4.57;;;6.90;38.20;;;;;;5015413;28;20324;-70
2022/03/12 10:10:03;;;;;;;9.65;5.00;;;7.00;38.10;;;;;;5049019;28;20027;-70
2022/03/12 10:12:29;;;;;;;8.10;4.53;;;7.00;38.10;;;;;;5029476;28;20029;-70
2022/03/12 10:14:55;;;;;;;9.75;5.05;;;7.20;37.90;;;;;;5046325;28;20038;-69
2022/03/12 10:17:20;;;;;;;7.50;4.93;;;7.20;38.10;;;;;;5049968;28;20160;-69
2022/03/12 10:19:47;;;;;;;9.48;5.13;;;7.30;37.90;;;;;;5031825;28;20203;-71
2022/03/12 10:22:14;;;;;;;8.52;4.45;;;7.40;38.10;;;;;;5048675;28;20061;-71
2022/03/12 10:24:40;;;;;;;8.57;4.60;;;7.40;37.90;;;;;;5026634;28;20135;-69
2022/03/12 10:27:07;;;;;;;10.73;5.47;;;7.50;37.50;;;;;;5045910;28;20048;-69
2022/03/12 10:29:34;;;;;;;10.73;5.40;;;7.60;37.90;;;;;;5048369;28;20025;-69
2022/03/12 10:32:30;;;;;;;18.23;5.13;;;7.60;37.50;;;;;;5027834;28;20770;-70
2022/03/12 10:34:59;;;;;;;8.25;5.28;;;7.70;37.60;;;;;;5048898;28;20112;-70
2022/03/12 10:37:31;;;;;;;10.98;5.35;;;7.80;37.50;;;;;;5047319;28;20017;-71
2022/03/12 10:40:06;;;;;;;8.23;5.85;;;7.80;37.70;;;;;;5046096;28;20016;-74
2022/03/12 10:42:32;;;;;;;10.40;4.90;;;7.90;37.40;;;;;;5048274;28;20030;-70
2022/03/12 10:45:16;;;;;;;8.73;5.03;;;7.90;36.90;;;;;;5027613;28;20021;-70
2022/03/12 10:47:45;;;;;;;8.02;4.68;;;8.00;37.10;;;;;;5026453;28;20083;-70
2022/03/12 10:50:12;;;;;;;8.70;5.28;;;8.10;37.40;;;;;;5052100;28;20025;-72
2022/03/12 10:52:49;;;;;;;9.90;5.15;;;8.20;36.50;;;;;;5050041;28;20028;-72
2022/03/12 10:55:30;;;;;;;7.78;4.97;;;8.30;36.30;;;;;;5047734;28;20048;-71
2022/03/12 10:58:15;;;;;;;8.07;4.95;;;8.30;36.20;;;;;;5048960;28;20090;-70
2022/03/12 11:00:46;;;;;;;9.85;6.20;;;8.30;37.70;;;;;;5048245;28;20040;-69
2022/03/12 11:03:14;;;;;;;8.02;5.10;;;8.30;36.60;;;;;;5031020;28;20071;-70
2022/03/12 11:05:43;;;;;;;12.52;5.25;;;8.40;36.30;;;;;;5033204;28;20390;-69
2022/03/12 11:08:18;;;;;;;7.90;4.80;;;8.60;36.40;;;;;;5031956;28;20032;-69
2022/03/12 11:10:58;;;;;;;10.82;5.47;;;8.80;36.50;;;;;;5047026;28;20078;-69
2022/03/12 11:13:27;;;;;;;7.67;4.77;;;9.20;36.00;;;;;;5049999;28;20060;-69
2022/03/12 11:16:33;;;;;;;7.60;4.88;;;10.00;35.20;;;;;;5032729;28;20336;-70
2022/03/12 11:19:07;;;;;;;9.15;5.22;;;11.80;33.20;;;;;;5042706;28;20103;-69
2022/03/12 11:21:50;;;;;;;7.25;5.35;;;14.50;30.00;;;;;;5049973;28;20108;-69
2022/03/12 11:24:22;;;;;;;7.53;5.35;;;16.70;27.40;;;;;;5031031;28;21845;-70
2022/03/12 11:26:55;;;;;;;8.25;5.53;;;18.30;26.10;;;;;;5047124;28;20033;-69
2022/03/12 11:29:26;;;;;;;6.03;4.95;;;18.90;25.20;;;;;;5048445;28;20032;-70
2022/03/12 11:31:53;;;;;;;;;;;19.60;25.10;;;;;;5030325;28;20029;-70
2022/03/12 11:34:20;;;;;;;7.82;5.15;;;20.30;24.70;;;;;;5047634;28;20354;-71
2022/03/12 11:36:55;;;;;;;11.23;6.13;;;20.50;23.60;;;;;;5047105;28;20495;-69
2022/03/12 11:39:39;;;;;;;8.98;5.72;;;20.70;23.30;;;;;;5030940;28;20398;-70
2022/03/12 11:42:14;;;;;;;8.10;5.55;;;20.30;23.80;;;;;;5029681;28;20025;-69
2022/03/12 11:44:44;;;;;;;5.68;4.57;;;20.30;24.30;;;;;;5030097;28;20060;-69
2022/03/12 11:47:11;;;;;;;7.97;5.75;;;20.10;23.40;;;;;;5047449;28;20032;-69
2022/03/12 11:49:39;;;;;;;10.10;6.18;;;19.80;24.00;;;;;;5029735;28;20021;-69
2022/03/12 11:52:05;;;;;;;12.10;6.30;;;19.60;24.10;;;;;;5049048;28;20041;-69
2022/03/12 11:54:33;;;;;;;9.75;5.35;;;19.40;24.20;;;;;;5048007;28;20032;-69
2022/03/12 11:56:59;;;;;;;11.93;6.40;;;18.70;24.40;;;;;;5013911;28;20032;-69
2022/03/12 11:59:26;;;;;;;7.65;5.63;;;17.70;25.20;;;;;;5029062;28;20020;-69
2022/03/12 12:02:24;;;;;;;8.82;6.03;;;16.90;25.80;;;;;;5029988;28;20021;-69
2022/03/12 12:04:53;;;;;;;8.27;5.75;;;16.10;27.30;;;;;;5023637;28;20041;-69
2022/03/12 12:07:19;;;;;;;9.07;6.03;;;15.40;27.90;;;;;;5046442;28;20037;-69
2022/03/12 12:09:45;;;;;;;9.27;5.57;;;14.90;28.00;;;;;;5029916;28;20051;-69
2022/03/12 12:12:13;;;;;;;23.55;6.28;;;14.60;28.50;;;;;;5049115;28;20491;-69
2022/03/12 12:14:43;;;;;;;9.38;5.80;;;14.30;28.70;;;;;;5030549;28;20135;-69
2022/03/12 12:17:10;;;;;;;7.72;5.43;;;14.10;28.70;;;;;;5028147;28;20043;-69
2022/03/12 12:19:37;;;;;;;9.32;5.57;;;14.00;29.30;;;;;;5048739;28;20498;-69
2022/03/12 12:22:07;;;;;;;9.85;6.18;;;14.10;29.20;;;;;;5026554;28;20482;-69
2022/03/12 12:24:36;;;;;;;10.52;5.85;;;14.10;29.40;;;;;;5047591;28;20450;-69
2022/03/12 12:27:09;;;;;;;9.20;6.25;;;13.70;28.90;;;;;;5022886;28;20022;-70
2022/03/12 12:29:45;;;;;;;8.65;5.95;;;13.40;29.10;;;;;;5028074;28;20064;-69
2022/03/12 12:32:14;;;;;;;9.85;5.88;;;13.10;29.80;;;;;;5011960;28;20065;-69
2022/03/12 12:35:02;;;;;;;12.70;6.05;;;12.90;29.90;;;;;;5044142;28;20108;-71
2022/03/12 12:37:41;;;;;;;9.55;6.63;;;12.60;30.20;;;;;;5047920;28;20033;-70
2022/03/12 12:40:35;;;;;;;9.15;6.13;;;12.20;30.60;;;;;;5047754;28;20039;-70
2022/03/12 12:43:07;;;;;;;12.32;6.70;;;12.00;31.00;;;;;;5045459;28;20033;-70
2022/03/12 12:45:36;;;;;;;10.88;6.45;;;11.70;31.30;;;;;;5047929;28;20296;-69
2022/03/12 12:48:15;;;;;;;9.52;5.45;;;11.50;31.50;;;;;;5046006;28;20067;-70
2022/03/12 12:50:58;;;;;;;9.25;5.80;;;11.40;32.10;;;;;;5046516;28;20025;-69
2022/03/12 12:53:31;;;;;;;8.88;5.60;;;11.40;32.30;;;;;;5047982;28;20054;-69